Página principal
METAR-TAF:

METAR-TAF

Aeroportos :

Kuwait, Kuwait

Aeroporto Internacional do Kuwait

latitude: 29-13N, longitude: 047-59E, altura: 55 m

Observação actual do tempo

O boletim foi feito há 47 minutos, às 23:00 UTC
Vento 5 kt de sudoeste
Temperatura 35°C
Humidade 39%
Pressão 1000 hPa
Visibilidade: 7000 m
Céu limpo

METAR: OKBK 182300Z 23005KT 7000 SKC 35/19 Q1000 NOSIG

Hora: 02:47 (23:47 UTC)

Previsão

O boletim foi feito há 1 hora e 2 minutos, às 22:45 UTC
Previsão válida de 19 às 00 UTC a 20 às 06 UTC
Vento 12 kt de sudoeste
Visibilidade: 6000 m
Tornando-se
de 19 às 03 UTC a 19 às 05 UTC
Vento 10 kt de nor-noroeste com rajadas de 20 kt

TAF: OKBK 182245Z 1900/2006 22012KT 6000 NSC BECMG 1903/1905 33010G20KT

Observações e previsões do tempo de mais de 4000 aeroportos (mensagens METAR e TAF).

As estações disponíveis são os pontos amarelos e vermelhos sobre o mapa.

Mova o rato sobre o mapa para ver o nome da estação.

Depois clique no ponto para visualizar as observações e previsões meteorológicas.

Para alterar o mapa : clique nos botões verdes com uma cruz preta para aumentar o zoom; no botão verde com uma pitada de zoom; ou nas setas verdes para mapas adjacentes.


METAR-TAF: